Longford, Kansas
Current Conditions -  °F | °C
As of 3:53 AM on Friday 28 Nov 2014 (Local Time) from KSLN Reporting Station
Clear Clear  
Wind Chill: -1°   Ceiling: Unl
Heat Index:   Visibility: 10mi
Dew Point: -3°   Wind: 10mph
Humidity: 65%   Direction: 180°S
Pressure: 29.99"   Gusts: NA
Location:  39.17°N, 97.33°W
Report Text: KSLN 280953Z 18009KT 10SM CLR 03/M03 A2999 RMK AO2 SLP162 T00281033
Loading
Personal Weather Stations






























Interactive Weather Map New forecast layout! Learn more

10-Day Weather Forecast

Advertisements
Track Severe Weather on mobile